Terminal Aerodrome Forecast
Issued by NWS Melbourne, FL

Home | Current Version | Previous Version | Text Only | Print | Product List | Glossary On
Versions: 1 2 3 4 5 6 7 8 9 10 11 12 13 14 15 16 17 18 19 20
718
FTUS42 KMLB 231504 AAA
TAFMCO
TAF AMD
KMCO 231504Z 2315/2412 16008KT P6SM VCSH SCT025 BKN090
     FM231800 11008KT P6SM VCSH SCT035 BKN060
     FM240300 VRB04KT P6SM SCT035 BKN200=

USA.gov is the U.S. government's official web portal to all federal, state and local government web resources and services.